sensor_id;sensor_type;location;lat;lon;timestamp;P1;durP1;ratioP1;P2;durP2;ratioP2
12348;SDS011;5974;42.710;27.258;2023-08-07T00:01:47;4.83;;;4.53;;
12348;SDS011;5974;42.710;27.258;2023-08-07T00:04:14;5.50;;;4.57;;
12348;SDS011;5974;42.710;27.258;2023-08-07T00:06:41;4.90;;;4.53;;
12348;SDS011;5974;42.710;27.258;2023-08-07T00:09:08;4.87;;;4.57;;
12348;SDS011;5974;42.710;27.258;2023-08-07T00:11:36;4.87;;;4.53;;
12348;SDS011;5974;42.710;27.258;2023-08-07T00:14:03;4.77;;;4.47;;
12348;SDS011;5974;42.710;27.258;2023-08-07T00:16:30;4.67;;;4.30;;
12348;SDS011;5974;42.710;27.258;2023-08-07T00:18:56;4.50;;;4.20;;
12348;SDS011;5974;42.710;27.258;2023-08-07T00:21:23;5.07;;;4.67;;
12348;SDS011;5974;42.710;27.258;2023-08-07T00:23:50;5.10;;;4.70;;
12348;SDS011;5974;42.710;27.258;2023-08-07T00:26:17;5.07;;;4.67;;
12348;SDS011;5974;42.710;27.258;2023-08-07T00:28:45;7.10;;;4.43;;
12348;SDS011;5974;42.710;27.258;2023-08-07T00:31:12;4.87;;;4.57;;
12348;SDS011;5974;42.710;27.258;2023-08-07T00:33:39;4.77;;;4.47;;
12348;SDS011;5974;42.710;27.258;2023-08-07T00:36:06;5.00;;;4.60;;
12348;SDS011;5974;42.710;27.258;2023-08-07T00:38:33;4.90;;;4.50;;
12348;SDS011;5974;42.710;27.258;2023-08-07T00:41:00;5.37;;;4.30;;
12348;SDS011;5974;42.710;27.258;2023-08-07T00:43:27;4.73;;;4.33;;
12348;SDS011;5974;42.710;27.258;2023-08-07T00:45:55;4.57;;;4.20;;
12348;SDS011;5974;42.710;27.258;2023-08-07T00:48:23;4.83;;;4.50;;
12348;SDS011;5974;42.710;27.258;2023-08-07T00:50:50;4.60;;;4.30;;
12348;SDS011;5974;42.710;27.258;2023-08-07T00:53:17;6.30;;;4.40;;
12348;SDS011;5974;42.710;27.258;2023-08-07T00:55:44;4.30;;;4.00;;
12348;SDS011;5974;42.710;27.258;2023-08-07T00:58:12;6.80;;;4.73;;
12348;SDS011;5974;42.710;27.258;2023-08-07T01:00:39;4.83;;;4.43;;
12348;SDS011;5974;42.710;27.258;2023-08-07T01:03:09;4.87;;;4.47;;
12348;SDS011;5974;42.710;27.258;2023-08-07T01:05:38;4.37;;;4.07;;
12348;SDS011;5974;42.710;27.258;2023-08-07T01:08:06;4.43;;;4.20;;
12348;SDS011;5974;42.710;27.258;2023-08-07T01:10:35;4.63;;;4.37;;
12348;SDS011;5974;42.710;27.258;2023-08-07T01:13:12;4.50;;;4.20;;
12348;SDS011;5974;42.710;27.258;2023-08-07T01:15:45;4.30;;;4.00;;
12348;SDS011;5974;42.710;27.258;2023-08-07T01:18:19;4.03;;;3.73;;
12348;SDS011;5974;42.710;27.258;2023-08-07T01:20:47;4.40;;;4.00;;
12348;SDS011;5974;42.710;27.258;2023-08-07T01:23:16;4.43;;;4.13;;
12348;SDS011;5974;42.710;27.258;2023-08-07T01:25:43;4.77;;;4.23;;
12348;SDS011;5974;42.710;27.258;2023-08-07T01:28:12;4.20;;;3.80;;
12348;SDS011;5974;42.710;27.258;2023-08-07T01:30:46;4.63;;;4.33;;
12348;SDS011;5974;42.710;27.258;2023-08-07T01:33:17;4.40;;;4.10;;
12348;SDS011;5974;42.710;27.258;2023-08-07T01:35:51;4.30;;;4.00;;
12348;SDS011;5974;42.710;27.258;2023-08-07T01:38:24;4.40;;;4.20;;
12348;SDS011;5974;42.710;27.258;2023-08-07T01:40:53;4.60;;;4.30;;
12348;SDS011;5974;42.710;27.258;2023-08-07T01:43:20;4.27;;;3.97;;
12348;SDS011;5974;42.710;27.258;2023-08-07T01:45:47;5.00;;;4.63;;
12348;SDS011;5974;42.710;27.258;2023-08-07T01:48:14;4.93;;;4.50;;
12348;SDS011;5974;42.710;27.258;2023-08-07T01:50:41;4.93;;;4.57;;
12348;SDS011;5974;42.710;27.258;2023-08-07T01:53:08;5.00;;;4.60;;
12348;SDS011;5974;42.710;27.258;2023-08-07T01:55:36;4.83;;;4.53;;
12348;SDS011;5974;42.710;27.258;2023-08-07T01:58:03;4.47;;;4.17;;
12348;SDS011;5974;42.710;27.258;2023-08-07T02:00:30;4.87;;;4.47;;
12348;SDS011;5974;42.710;27.258;2023-08-07T02:02:57;4.87;;;4.57;;
12348;SDS011;5974;42.710;27.258;2023-08-07T02:05:24;5.20;;;4.80;;
12348;SDS011;5974;42.710;27.258;2023-08-07T02:07:50;4.97;;;4.50;;
12348;SDS011;5974;42.710;27.258;2023-08-07T02:10:17;4.60;;;4.30;;
12348;SDS011;5974;42.710;27.258;2023-08-07T02:12:46;4.77;;;4.30;;
12348;SDS011;5974;42.710;27.258;2023-08-07T02:15:12;4.60;;;4.20;;
12348;SDS011;5974;42.710;27.258;2023-08-07T02:17:39;4.33;;;4.00;;
12348;SDS011;5974;42.710;27.258;2023-08-07T02:20:08;4.40;;;4.10;;
12348;SDS011;5974;42.710;27.258;2023-08-07T02:22:35;4.20;;;3.90;;
12348;SDS011;5974;42.710;27.258;2023-08-07T02:25:02;4.33;;;4.13;;
12348;SDS011;5974;42.710;27.258;2023-08-07T02:27:29;5.43;;;4.47;;
12348;SDS011;5974;42.710;27.258;2023-08-07T02:29:57;4.53;;;4.13;;
12348;SDS011;5974;42.710;27.258;2023-08-07T02:32:24;7.27;;;3.90;;
12348;SDS011;5974;42.710;27.258;2023-08-07T02:34:51;3.97;;;3.67;;
12348;SDS011;5974;42.710;27.258;2023-08-07T02:37:18;4.17;;;3.87;;
12348;SDS011;5974;42.710;27.258;2023-08-07T02:39:45;4.40;;;4.00;;
12348;SDS011;5974;42.710;27.258;2023-08-07T02:42:12;4.20;;;3.90;;
12348;SDS011;5974;42.710;27.258;2023-08-07T02:44:39;3.80;;;3.60;;
12348;SDS011;5974;42.710;27.258;2023-08-07T02:47:08;3.73;;;3.43;;
12348;SDS011;5974;42.710;27.258;2023-08-07T02:49:34;4.10;;;3.80;;
12348;SDS011;5974;42.710;27.258;2023-08-07T02:52:01;3.73;;;3.37;;
12348;SDS011;5974;42.710;27.258;2023-08-07T02:54:28;3.63;;;3.30;;
12348;SDS011;5974;42.710;27.258;2023-08-07T02:56:56;4.07;;;3.63;;
12348;SDS011;5974;42.710;27.258;2023-08-07T02:59:23;3.70;;;3.50;;
12348;SDS011;5974;42.710;27.258;2023-08-07T03:01:50;3.37;;;3.17;;
12348;SDS011;5974;42.710;27.258;2023-08-07T03:04:19;3.53;;;3.20;;
12348;SDS011;5974;42.710;27.258;2023-08-07T03:06:45;3.53;;;3.03;;
12348;SDS011;5974;42.710;27.258;2023-08-07T03:09:12;3.20;;;3.00;;
12348;SDS011;5974;42.710;27.258;2023-08-07T03:11:39;4.10;;;3.30;;
12348;SDS011;5974;42.710;27.258;2023-08-07T03:14:06;3.57;;;3.27;;
12348;SDS011;5974;42.710;27.258;2023-08-07T03:16:33;3.10;;;2.90;;
12348;SDS011;5974;42.710;27.258;2023-08-07T03:19:00;4.70;;;3.00;;
12348;SDS011;5974;42.710;27.258;2023-08-07T03:21:28;2.83;;;2.63;;
12348;SDS011;5974;42.710;27.258;2023-08-07T03:23:55;2.83;;;2.63;;
12348;SDS011;5974;42.710;27.258;2023-08-07T03:26:22;2.80;;;2.37;;
12348;SDS011;5974;42.710;27.258;2023-08-07T03:28:49;2.80;;;2.70;;
12348;SDS011;5974;42.710;27.258;2023-08-07T03:31:16;3.23;;;3.03;;
12348;SDS011;5974;42.710;27.258;2023-08-07T03:33:43;2.93;;;2.73;;
12348;SDS011;5974;42.710;27.258;2023-08-07T03:36:10;3.43;;;3.23;;
12348;SDS011;5974;42.710;27.258;2023-08-07T03:38:38;6.27;;;2.87;;
12348;SDS011;5974;42.710;27.258;2023-08-07T03:41:05;3.00;;;2.80;;
12348;SDS011;5974;42.710;27.258;2023-08-07T03:43:31;2.77;;;2.63;;
12348;SDS011;5974;42.710;27.258;2023-08-07T03:45:58;2.93;;;2.30;;
12348;SDS011;5974;42.710;27.258;2023-08-07T03:48:25;2.50;;;2.40;;
12348;SDS011;5974;42.710;27.258;2023-08-07T03:50:52;2.37;;;2.27;;
12348;SDS011;5974;42.710;27.258;2023-08-07T03:53:19;4.33;;;2.53;;
12348;SDS011;5974;42.710;27.258;2023-08-07T03:55:50;2.73;;;2.50;;
12348;SDS011;5974;42.710;27.258;2023-08-07T03:58:17;3.23;;;2.47;;
12348;SDS011;5974;42.710;27.258;2023-08-07T04:00:44;2.37;;;2.27;;
12348;SDS011;5974;42.710;27.258;2023-08-07T04:03:11;2.80;;;2.50;;
12348;SDS011;5974;42.710;27.258;2023-08-07T04:05:38;4.27;;;2.50;;
12348;SDS011;5974;42.710;27.258;2023-08-07T04:08:04;10.87;;;2.60;;
12348;SDS011;5974;42.710;27.258;2023-08-07T04:10:31;2.07;;;1.97;;
12348;SDS011;5974;42.710;27.258;2023-08-07T04:13:00;2.30;;;2.20;;
12348;SDS011;5974;42.710;27.258;2023-08-07T04:15:26;6.43;;;2.30;;
12348;SDS011;5974;42.710;27.258;2023-08-07T04:17:53;2.50;;;2.30;;
12348;SDS011;5974;42.710;27.258;2023-08-07T04:20:21;2.30;;;2.20;;
12348;SDS011;5974;42.710;27.258;2023-08-07T04:22:48;2.53;;;2.30;;
12348;SDS011;5974;42.710;27.258;2023-08-07T04:25:15;5.33;;;2.40;;
12348;SDS011;5974;42.710;27.258;2023-08-07T04:27:42;3.33;;;2.47;;
12348;SDS011;5974;42.710;27.258;2023-08-07T04:30:11;2.13;;;2.03;;
12348;SDS011;5974;42.710;27.258;2023-08-07T04:32:38;2.30;;;2.20;;
12348;SDS011;5974;42.710;27.258;2023-08-07T04:35:06;2.93;;;2.10;;
12348;SDS011;5974;42.710;27.258;2023-08-07T04:37:34;2.30;;;2.20;;
12348;SDS011;5974;42.710;27.258;2023-08-07T04:40:01;2.00;;;1.90;;
12348;SDS011;5974;42.710;27.258;2023-08-07T04:42:28;2.07;;;1.97;;
12348;SDS011;5974;42.710;27.258;2023-08-07T04:44:55;1.80;;;1.80;;
12348;SDS011;5974;42.710;27.258;2023-08-07T04:47:23;1.80;;;1.70;;
12348;SDS011;5974;42.710;27.258;2023-08-07T04:49:50;1.97;;;1.87;;
12348;SDS011;5974;42.710;27.258;2023-08-07T04:52:17;1.90;;;1.80;;
12348;SDS011;5974;42.710;27.258;2023-08-07T04:54:44;1.50;;;1.50;;
12348;SDS011;5974;42.710;27.258;2023-08-07T04:57:11;1.70;;;1.70;;
12348;SDS011;5974;42.710;27.258;2023-08-07T04:59:38;1.80;;;1.65;;
12348;SDS011;5974;42.710;27.258;2023-08-07T05:02:05;1.70;;;1.60;;
12348;SDS011;5974;42.710;27.258;2023-08-07T05:04:33;1.95;;;1.85;;
12348;SDS011;5974;42.710;27.258;2023-08-07T05:07:00;1.40;;;1.40;;
12348;SDS011;5974;42.710;27.258;2023-08-07T05:09:27;1.90;;;1.65;;
12348;SDS011;5974;42.710;27.258;2023-08-07T05:11:54;1.83;;;1.73;;
12348;SDS011;5974;42.710;27.258;2023-08-07T05:14:21;4.63;;;1.83;;
12348;SDS011;5974;42.710;27.258;2023-08-07T05:16:48;2.03;;;1.60;;
12348;SDS011;5974;42.710;27.258;2023-08-07T05:19:14;1.40;;;1.40;;
12348;SDS011;5974;42.710;27.258;2023-08-07T05:21:43;1.43;;;1.43;;
12348;SDS011;5974;42.710;27.258;2023-08-07T05:24:10;1.40;;;1.40;;
12348;SDS011;5974;42.710;27.258;2023-08-07T05:26:37;1.40;;;1.38;;
12348;SDS011;5974;42.710;27.258;2023-08-07T05:29:04;1.85;;;1.17;;
12348;SDS011;5974;42.710;27.258;2023-08-07T05:31:32;8.90;;;2.35;;
12348;SDS011;5974;42.710;27.258;2023-08-07T05:33:59;1.83;;;1.40;;
12348;SDS011;5974;42.710;27.258;2023-08-07T05:36:25;1.37;;;1.33;;
12348;SDS011;5974;42.710;27.258;2023-08-07T05:38:54;1.30;;;1.30;;
12348;SDS011;5974;42.710;27.258;2023-08-07T05:41:21;1.40;;;1.30;;
12348;SDS011;5974;42.710;27.258;2023-08-07T05:43:48;3.63;;;1.60;;
12348;SDS011;5974;42.710;27.258;2023-08-07T05:46:15;17.67;;;2.40;;
12348;SDS011;5974;42.710;27.258;2023-08-07T05:48:42;1.60;;;1.50;;
12348;SDS011;5974;42.710;27.258;2023-08-07T05:51:09;1.57;;;1.30;;
12348;SDS011;5974;42.710;27.258;2023-08-07T05:53:36;2.33;;;1.30;;
12348;SDS011;5974;42.710;27.258;2023-08-07T05:56:04;1.20;;;1.20;;
12348;SDS011;5974;42.710;27.258;2023-08-07T05:58:31;1.30;;;1.30;;
12348;SDS011;5974;42.710;27.258;2023-08-07T06:00:58;1.50;;;1.40;;
12348;SDS011;5974;42.710;27.258;2023-08-07T06:03:24;1.60;;;1.50;;
12348;SDS011;5974;42.710;27.258;2023-08-07T06:05:51;1.90;;;1.67;;
12348;SDS011;5974;42.710;27.258;2023-08-07T06:08:18;1.52;;;1.42;;
12348;SDS011;5974;42.710;27.258;2023-08-07T06:10:45;7.47;;;1.90;;
12348;SDS011;5974;42.710;27.258;2023-08-07T06:13:13;1.95;;;1.40;;
12348;SDS011;5974;42.710;27.258;2023-08-07T06:15:40;2.42;;;1.50;;
12348;SDS011;5974;42.710;27.258;2023-08-07T06:18:07;5.50;;;1.70;;
12348;SDS011;5974;42.710;27.258;2023-08-07T06:20:34;5.47;;;1.50;;
12348;SDS011;5974;42.710;27.258;2023-08-07T06:23:01;1.50;;;1.40;;
12348;SDS011;5974;42.710;27.258;2023-08-07T06:25:28;2.78;;;1.60;;
12348;SDS011;5974;42.710;27.258;2023-08-07T06:27:55;11.93;;;1.95;;
12348;SDS011;5974;42.710;27.258;2023-08-07T06:30:23;3.13;;;1.60;;
12348;SDS011;5974;42.710;27.258;2023-08-07T06:32:50;2.70;;;1.40;;
12348;SDS011;5974;42.710;27.258;2023-08-07T06:35:17;1.55;;;1.45;;
12348;SDS011;5974;42.710;27.258;2023-08-07T06:37:43;1.70;;;1.38;;
12348;SDS011;5974;42.710;27.258;2023-08-07T06:40:10;3.50;;;1.45;;
12348;SDS011;5974;42.710;27.258;2023-08-07T06:42:37;20.27;;;2.42;;
12348;SDS011;5974;42.710;27.258;2023-08-07T06:45:05;1.70;;;1.52;;
12348;SDS011;5974;42.710;27.258;2023-08-07T06:47:34;1.30;;;1.27;;
12348;SDS011;5974;42.710;27.258;2023-08-07T06:50:00;1.40;;;1.30;;
12348;SDS011;5974;42.710;27.258;2023-08-07T06:52:27;4.43;;;1.60;;
12348;SDS011;5974;42.710;27.258;2023-08-07T06:54:54;1.45;;;1.38;;
12348;SDS011;5974;42.710;27.258;2023-08-07T06:57:21;2.05;;;1.40;;
12348;SDS011;5974;42.710;27.258;2023-08-07T06:59:48;1.50;;;1.40;;
12348;SDS011;5974;42.710;27.258;2023-08-07T07:02:14;1.92;;;1.83;;
12348;SDS011;5974;42.710;27.258;2023-08-07T07:04:43;2.28;;;1.30;;
12348;SDS011;5974;42.710;27.258;2023-08-07T07:07:10;1.75;;;1.25;;
12348;SDS011;5974;42.710;27.258;2023-08-07T07:09:36;1.85;;;1.40;;
12348;SDS011;5974;42.710;27.258;2023-08-07T07:12:03;2.88;;;1.50;;
12348;SDS011;5974;42.710;27.258;2023-08-07T07:14:32;1.77;;;1.42;;
12348;SDS011;5974;42.710;27.258;2023-08-07T07:16:59;1.50;;;1.38;;
12348;SDS011;5974;42.710;27.258;2023-08-07T07:19:26;6.03;;;1.70;;
12348;SDS011;5974;42.710;27.258;2023-08-07T07:21:54;4.10;;;1.50;;
12348;SDS011;5974;42.710;27.258;2023-08-07T07:24:21;1.17;;;1.13;;
12348;SDS011;5974;42.710;27.258;2023-08-07T07:26:48;3.85;;;1.30;;
12348;SDS011;5974;42.710;27.258;2023-08-07T07:29:16;1.85;;;1.35;;
12348;SDS011;5974;42.710;27.258;2023-08-07T07:31:43;2.40;;;1.20;;
12348;SDS011;5974;42.710;27.258;2023-08-07T07:34:10;1.20;;;1.20;;
12348;SDS011;5974;42.710;27.258;2023-08-07T07:36:37;1.35;;;1.30;;
12348;SDS011;5974;42.710;27.258;2023-08-07T07:39:05;1.10;;;1.10;;
12348;SDS011;5974;42.710;27.258;2023-08-07T07:41:32;1.88;;;1.45;;
12348;SDS011;5974;42.710;27.258;2023-08-07T07:43:59;1.40;;;1.30;;
12348;SDS011;5974;42.710;27.258;2023-08-07T07:46:27;1.45;;;1.35;;
12348;SDS011;5974;42.710;27.258;2023-08-07T07:48:54;1.50;;;1.40;;
12348;SDS011;5974;42.710;27.258;2023-08-07T07:51:21;1.20;;;1.20;;
12348;SDS011;5974;42.710;27.258;2023-08-07T07:53:48;8.15;;;1.50;;
12348;SDS011;5974;42.710;27.258;2023-08-07T07:56:17;1.05;;;1.05;;
12348;SDS011;5974;42.710;27.258;2023-08-07T07:58:43;2.60;;;1.50;;
12348;SDS011;5974;42.710;27.258;2023-08-07T08:01:11;1.33;;;1.30;;
12348;SDS011;5974;42.710;27.258;2023-08-07T08:03:38;2.25;;;1.23;;
12348;SDS011;5974;42.710;27.258;2023-08-07T08:06:05;1.10;;;1.10;;
12348;SDS011;5974;42.710;27.258;2023-08-07T08:08:32;1.10;;;1.10;;
12348;SDS011;5974;42.710;27.258;2023-08-07T08:10:59;1.42;;;1.30;;
12348;SDS011;5974;42.710;27.258;2023-08-07T08:13:27;1.30;;;1.30;;
12348;SDS011;5974;42.710;27.258;2023-08-07T08:15:54;1.30;;;1.30;;
12348;SDS011;5974;42.710;27.258;2023-08-07T08:18:21;1.30;;;1.30;;
12348;SDS011;5974;42.710;27.258;2023-08-07T08:20:48;1.10;;;1.10;;
12348;SDS011;5974;42.710;27.258;2023-08-07T08:23:15;2.30;;;1.23;;
12348;SDS011;5974;42.710;27.258;2023-08-07T08:25:41;1.10;;;1.10;;
12348;SDS011;5974;42.710;27.258;2023-08-07T08:28:08;1.07;;;1.07;;
12348;SDS011;5974;42.710;27.258;2023-08-07T08:30:36;4.03;;;1.60;;
12348;SDS011;5974;42.710;27.258;2023-08-07T08:33:03;1.50;;;1.00;;
12348;SDS011;5974;42.710;27.258;2023-08-07T08:35:30;1.20;;;1.10;;
12348;SDS011;5974;42.710;27.258;2023-08-07T08:37:57;1.17;;;1.07;;
12348;SDS011;5974;42.710;27.258;2023-08-07T08:40:24;0.97;;;0.97;;
12348;SDS011;5974;42.710;27.258;2023-08-07T08:42:51;1.80;;;0.90;;
12348;SDS011;5974;42.710;27.258;2023-08-07T08:45:23;1.03;;;1.03;;
12348;SDS011;5974;42.710;27.258;2023-08-07T08:47:54;1.40;;;1.30;;
12348;SDS011;5974;42.710;27.258;2023-08-07T08:50:27;1.37;;;1.00;;
12348;SDS011;5974;42.710;27.258;2023-08-07T08:52:55;1.40;;;1.30;;
12348;SDS011;5974;42.710;27.258;2023-08-07T08:55:23;1.27;;;1.27;;
12348;SDS011;5974;42.710;27.258;2023-08-07T08:57:50;1.20;;;1.10;;
12348;SDS011;5974;42.710;27.258;2023-08-07T09:00:18;1.90;;;1.17;;
12348;SDS011;5974;42.710;27.258;2023-08-07T09:02:47;1.87;;;1.20;;
12348;SDS011;5974;42.710;27.258;2023-08-07T09:05:16;1.30;;;1.30;;
12348;SDS011;5974;42.710;27.258;2023-08-07T09:07:44;0.83;;;0.83;;
12348;SDS011;5974;42.710;27.258;2023-08-07T09:10:12;1.10;;;1.10;;
12348;SDS011;5974;42.710;27.258;2023-08-07T09:12:40;1.50;;;0.90;;
12348;SDS011;5974;42.710;27.258;2023-08-07T09:15:09;1.03;;;1.03;;
12348;SDS011;5974;42.710;27.258;2023-08-07T09:17:40;0.80;;;0.80;;
12348;SDS011;5974;42.710;27.258;2023-08-07T09:20:09;1.30;;;1.20;;
12348;SDS011;5974;42.710;27.258;2023-08-07T09:22:40;2.20;;;1.30;;
12348;SDS011;5974;42.710;27.258;2023-08-07T09:25:07;0.80;;;0.80;;
12348;SDS011;5974;42.710;27.258;2023-08-07T09:27:36;1.10;;;1.10;;
12348;SDS011;5974;42.710;27.258;2023-08-07T09:30:04;1.23;;;1.23;;
12348;SDS011;5974;42.710;27.258;2023-08-07T09:32:33;1.00;;;1.00;;
12348;SDS011;5974;42.710;27.258;2023-08-07T09:35:01;3.07;;;1.10;;
12348;SDS011;5974;42.710;27.258;2023-08-07T09:37:29;1.13;;;1.03;;
12348;SDS011;5974;42.710;27.258;2023-08-07T09:39:57;3.20;;;1.17;;
12348;SDS011;5974;42.710;27.258;2023-08-07T09:42:26;0.93;;;0.93;;
12348;SDS011;5974;42.710;27.258;2023-08-07T09:44:59;1.00;;;1.00;;
12348;SDS011;5974;42.710;27.258;2023-08-07T09:47:26;0.80;;;0.80;;
12348;SDS011;5974;42.710;27.258;2023-08-07T09:49:55;0.80;;;0.80;;
12348;SDS011;5974;42.710;27.258;2023-08-07T09:52:22;0.87;;;0.87;;
12348;SDS011;5974;42.710;27.258;2023-08-07T09:54:51;0.80;;;0.80;;
12348;SDS011;5974;42.710;27.258;2023-08-07T09:57:22;0.80;;;0.80;;
12348;SDS011;5974;42.710;27.258;2023-08-07T09:59:49;0.80;;;0.80;;
12348;SDS011;5974;42.710;27.258;2023-08-07T10:02:16;0.90;;;0.90;;
12348;SDS011;5974;42.710;27.258;2023-08-07T10:04:43;0.70;;;0.70;;
12348;SDS011;5974;42.710;27.258;2023-08-07T10:07:11;1.13;;;0.90;;
12348;SDS011;5974;42.710;27.258;2023-08-07T10:09:40;1.50;;;1.40;;
12348;SDS011;5974;42.710;27.258;2023-08-07T10:12:08;0.90;;;0.90;;
12348;SDS011;5974;42.710;27.258;2023-08-07T10:14:37;0.90;;;0.90;;
12348;SDS011;5974;42.710;27.258;2023-08-07T10:17:07;0.80;;;0.80;;
12348;SDS011;5974;42.710;27.258;2023-08-07T10:19:34;0.95;;;0.90;;
12348;SDS011;5974;42.710;27.258;2023-08-07T10:22:01;0.80;;;0.80;;
12348;SDS011;5974;42.710;27.258;2023-08-07T10:24:29;0.80;;;0.80;;
12348;SDS011;5974;42.710;27.258;2023-08-07T10:26:57;1.30;;;1.20;;
12348;SDS011;5974;42.710;27.258;2023-08-07T10:29:25;1.63;;;0.90;;
12348;SDS011;5974;42.710;27.258;2023-08-07T10:31:55;0.90;;;0.90;;
12348;SDS011;5974;42.710;27.258;2023-08-07T10:34:24;0.83;;;0.83;;
12348;SDS011;5974;42.710;27.258;2023-08-07T10:36:54;0.88;;;0.88;;
12348;SDS011;5974;42.710;27.258;2023-08-07T10:39:21;1.50;;;1.08;;
12348;SDS011;5974;42.710;27.258;2023-08-07T10:41:52;0.88;;;0.88;;
12348;SDS011;5974;42.710;27.258;2023-08-07T10:44:20;0.60;;;0.60;;
12348;SDS011;5974;42.710;27.258;2023-08-07T10:46:49;0.75;;;0.75;;
12348;SDS011;5974;42.710;27.258;2023-08-07T10:52:08;1.13;;;1.10;;
12348;SDS011;5974;42.710;27.258;2023-08-07T10:54:39;1.37;;;1.27;;
12348;SDS011;5974;42.710;27.258;2023-08-07T10:57:09;1.00;;;1.00;;
12348;SDS011;5974;42.710;27.258;2023-08-07T10:59:37;1.30;;;1.20;;
12348;SDS011;5974;42.710;27.258;2023-08-07T11:02:04;0.80;;;0.80;;
12348;SDS011;5974;42.710;27.258;2023-08-07T11:04:37;0.73;;;0.73;;
12348;SDS011;5974;42.710;27.258;2023-08-07T11:07:06;0.60;;;0.60;;
12348;SDS011;5974;42.710;27.258;2023-08-07T11:09:33;0.90;;;0.90;;
12348;SDS011;5974;42.710;27.258;2023-08-07T11:12:00;0.93;;;0.90;;
12348;SDS011;5974;42.710;27.258;2023-08-07T11:14:27;1.33;;;0.67;;
12348;SDS011;5974;42.710;27.258;2023-08-07T11:16:54;1.57;;;0.73;;
12348;SDS011;5974;42.710;27.258;2023-08-07T11:19:22;0.60;;;0.60;;
12348;SDS011;5974;42.710;27.258;2023-08-07T11:21:49;0.80;;;0.80;;
12348;SDS011;5974;42.710;27.258;2023-08-07T11:24:18;1.27;;;0.80;;
12348;SDS011;5974;42.710;27.258;2023-08-07T11:26:46;0.80;;;0.80;;
12348;SDS011;5974;42.710;27.258;2023-08-07T11:29:15;1.05;;;0.90;;
12348;SDS011;5974;42.710;27.258;2023-08-07T11:31:42;0.90;;;0.90;;
12348;SDS011;5974;42.710;27.258;2023-08-07T11:34:10;3.33;;;0.90;;
12348;SDS011;5974;42.710;27.258;2023-08-07T11:36:40;0.83;;;0.83;;
12348;SDS011;5974;42.710;27.258;2023-08-07T11:39:07;0.70;;;0.70;;
12348;SDS011;5974;42.710;27.258;2023-08-07T11:41:35;1.10;;;1.10;;
12348;SDS011;5974;42.710;27.258;2023-08-07T11:44:02;3.80;;;1.10;;
12348;SDS011;5974;42.710;27.258;2023-08-07T11:46:30;1.57;;;0.90;;
12348;SDS011;5974;42.710;27.258;2023-08-07T11:48:57;2.28;;;0.80;;
12348;SDS011;5974;42.710;27.258;2023-08-07T11:51:24;1.20;;;0.80;;
12348;SDS011;5974;42.710;27.258;2023-08-07T11:53:51;0.70;;;0.70;;
12348;SDS011;5974;42.710;27.258;2023-08-07T11:56:21;1.02;;;0.80;;
12348;SDS011;5974;42.710;27.258;2023-08-07T11:58:51;0.98;;;0.80;;
12348;SDS011;5974;42.710;27.258;2023-08-07T12:01:19;2.03;;;0.90;;
12348;SDS011;5974;42.710;27.258;2023-08-07T12:03:50;0.82;;;0.82;;
12348;SDS011;5974;42.710;27.258;2023-08-07T12:06:19;0.90;;;0.90;;
12348;SDS011;5974;42.710;27.258;2023-08-07T12:08:48;0.80;;;0.80;;
12348;SDS011;5974;42.710;27.258;2023-08-07T12:11:16;0.70;;;0.70;;
12348;SDS011;5974;42.710;27.258;2023-08-07T12:13:43;0.93;;;0.75;;
12348;SDS011;5974;42.710;27.258;2023-08-07T12:16:13;0.97;;;0.97;;
12348;SDS011;5974;42.710;27.258;2023-08-07T12:18:43;0.80;;;0.80;;
12348;SDS011;5974;42.710;27.258;2023-08-07T12:21:10;0.90;;;0.90;;
12348;SDS011;5974;42.710;27.258;2023-08-07T12:23:37;0.85;;;0.85;;
12348;SDS011;5974;42.710;27.258;2023-08-07T12:26:04;1.20;;;0.80;;
12348;SDS011;5974;42.710;27.258;2023-08-07T12:28:32;1.80;;;0.80;;
12348;SDS011;5974;42.710;27.258;2023-08-07T12:30:59;1.03;;;1.00;;
12348;SDS011;5974;42.710;27.258;2023-08-07T12:33:28;0.90;;;0.90;;
12348;SDS011;5974;42.710;27.258;2023-08-07T12:35:55;1.23;;;1.13;;
12348;SDS011;5974;42.710;27.258;2023-08-07T12:38:22;1.90;;;0.88;;
12348;SDS011;5974;42.710;27.258;2023-08-07T12:40:49;1.00;;;1.00;;
12348;SDS011;5974;42.710;27.258;2023-08-07T12:43:16;1.08;;;0.90;;
12348;SDS011;5974;42.710;27.258;2023-08-07T12:45:43;1.63;;;0.88;;
12348;SDS011;5974;42.710;27.258;2023-08-07T12:48:10;1.00;;;1.00;;
12348;SDS011;5974;42.710;27.258;2023-08-07T12:50:38;1.08;;;1.02;;
12348;SDS011;5974;42.710;27.258;2023-08-07T12:53:06;0.82;;;0.82;;
12348;SDS011;5974;42.710;27.258;2023-08-07T12:55:35;0.87;;;0.87;;
12348;SDS011;5974;42.710;27.258;2023-08-07T12:58:02;0.90;;;0.90;;
12348;SDS011;5974;42.710;27.258;2023-08-07T13:00:28;2.00;;;1.00;;
12348;SDS011;5974;42.710;27.258;2023-08-07T13:02:56;1.00;;;1.00;;
12348;SDS011;5974;42.710;27.258;2023-08-07T13:05:23;0.87;;;0.87;;
12348;SDS011;5974;42.710;27.258;2023-08-07T13:07:52;1.10;;;1.10;;
12348;SDS011;5974;42.710;27.258;2023-08-07T13:10:21;1.20;;;1.20;;
12348;SDS011;5974;42.710;27.258;2023-08-07T13:12:48;0.90;;;0.90;;
12348;SDS011;5974;42.710;27.258;2023-08-07T13:15:16;1.70;;;1.40;;
12348;SDS011;5974;42.710;27.258;2023-08-07T13:17:43;1.10;;;1.10;;
12348;SDS011;5974;42.710;27.258;2023-08-07T13:20:11;1.30;;;1.30;;
12348;SDS011;5974;42.710;27.258;2023-08-07T13:22:39;1.20;;;1.20;;
12348;SDS011;5974;42.710;27.258;2023-08-07T13:25:09;1.17;;;1.17;;
12348;SDS011;5974;42.710;27.258;2023-08-07T13:27:38;1.10;;;1.10;;
12348;SDS011;5974;42.710;27.258;2023-08-07T13:30:05;1.23;;;1.23;;
12348;SDS011;5974;42.710;27.258;2023-08-07T13:32:33;1.57;;;1.40;;
12348;SDS011;5974;42.710;27.258;2023-08-07T13:35:00;1.10;;;1.10;;
12348;SDS011;5974;42.710;27.258;2023-08-07T13:37:28;1.10;;;1.10;;
12348;SDS011;5974;42.710;27.258;2023-08-07T13:39:55;1.20;;;1.20;;
12348;SDS011;5974;42.710;27.258;2023-08-07T13:42:24;2.20;;;1.27;;
12348;SDS011;5974;42.710;27.258;2023-08-07T13:44:53;1.30;;;1.30;;
12348;SDS011;5974;42.710;27.258;2023-08-07T13:47:21;1.30;;;1.20;;
12348;SDS011;5974;42.710;27.258;2023-08-07T13:49:50;1.10;;;1.10;;
12348;SDS011;5974;42.710;27.258;2023-08-07T13:52:18;1.30;;;1.30;;
12348;SDS011;5974;42.710;27.258;2023-08-07T13:54:44;1.43;;;1.33;;
12348;SDS011;5974;42.710;27.258;2023-08-07T13:57:11;1.20;;;1.20;;
12348;SDS011;5974;42.710;27.258;2023-08-07T13:59:40;2.37;;;1.17;;
12348;SDS011;5974;42.710;27.258;2023-08-07T14:02:07;1.20;;;1.20;;
12348;SDS011;5974;42.710;27.258;2023-08-07T14:04:34;2.20;;;1.47;;
12348;SDS011;5974;42.710;27.258;2023-08-07T14:07:02;1.63;;;1.30;;
12348;SDS011;5974;42.710;27.258;2023-08-07T14:09:30;1.33;;;1.30;;
12348;SDS011;5974;42.710;27.258;2023-08-07T14:11:56;1.47;;;1.37;;
12348;SDS011;5974;42.710;27.258;2023-08-07T14:14:23;1.80;;;1.00;;
12348;SDS011;5974;42.710;27.258;2023-08-07T14:16:52;1.47;;;1.37;;
12348;SDS011;5974;42.710;27.258;2023-08-07T14:19:22;1.23;;;1.10;;
12348;SDS011;5974;42.710;27.258;2023-08-07T14:21:49;1.20;;;1.20;;
12348;SDS011;5974;42.710;27.258;2023-08-07T14:24:16;1.10;;;1.10;;
12348;SDS011;5974;42.710;27.258;2023-08-07T14:26:43;1.40;;;1.30;;
12348;SDS011;5974;42.710;27.258;2023-08-07T14:29:09;1.37;;;1.37;;
12348;SDS011;5974;42.710;27.258;2023-08-07T14:31:37;3.00;;;1.30;;
12348;SDS011;5974;42.710;27.258;2023-08-07T14:34:06;1.67;;;1.30;;
12348;SDS011;5974;42.710;27.258;2023-08-07T14:36:32;1.50;;;1.17;;
12348;SDS011;5974;42.710;27.258;2023-08-07T14:38:59;3.60;;;1.50;;
12348;SDS011;5974;42.710;27.258;2023-08-07T14:41:27;1.80;;;1.70;;
12348;SDS011;5974;42.710;27.258;2023-08-07T14:43:54;1.47;;;1.40;;
12348;SDS011;5974;42.710;27.258;2023-08-07T14:46:20;1.40;;;1.40;;
12348;SDS011;5974;42.710;27.258;2023-08-07T14:48:48;1.27;;;1.27;;
12348;SDS011;5974;42.710;27.258;2023-08-07T14:51:17;1.30;;;1.30;;
12348;SDS011;5974;42.710;27.258;2023-08-07T14:53:43;1.80;;;1.70;;